Oney Z — J8B4719 — position and weather

sailwx.info

Track history (hours):
 
Tides and Currents Weather Stations Pressure Air Temp Water Temp Dewpoint Dewpoint Depression Visibility Wind Speed Wind Dir Waves Ship Positions

Oney Z

Last reported at 2016-Dec-04 13:05 UTC. Time now 2016-Dec-10 03:06 UTC.
Position N 40°42' E 024°56'.

Length 79 m; draft 4 m.

Type: Cargo ship. MMSI: 376099000.

Date/timePositionNaut miles runAvg speedWind from/ knotsBaromVisibWave heightAir tempDewpointWater temp
2016-Dec-04 13:05N 40°42' E 024°56'4 6.6
2016-Dec-04 12:33N 40°44' E 024°53'7 6.8
2016-Dec-04 11:33N 40°48' E 024°45'7 7.1
2016-Dec-04 10:33N 40°50' E 024°36'8 7.7
2016-Dec-04 09:33N 40°56' E 024°29'1 1.1
2016-Dec-04 08:32N 40°57' E 024°29'0 0.0
2016-Dec-04 07:32N 40°57' E 024°29'0 0.0
2016-Dec-04 06:32N 40°57' E 024°29'0 0.0
2016-Dec-04 05:32N 40°57' E 024°29'0 0.0
2016-Dec-04 04:32N 40°57' E 024°29'0 0.0
2016-Dec-04 03:32N 40°57' E 024°29'0 0.0
2016-Dec-04 02:29N 40°57' E 024°29'0 0.0
2016-Dec-04 01:32N 40°57' E 024°29'0 0.0
2016-Dec-04 00:29N 40°57' E 024°29'0 0.0
2016-Dec-03 23:32N 40°57' E 024°29'0 0.0
2016-Dec-03 22:32N 40°57' E 024°29'0 0.0
2016-Dec-03 21:32N 40°57' E 024°29'0 0.0
2016-Dec-03 20:32N 40°57' E 024°29'0 0.0
2016-Dec-03 19:32N 40°57' E 024°29'0 0.0
2016-Dec-03 18:32N 40°57' E 024°29'0 0.0
2016-Dec-03 17:32N 40°57' E 024°29'1 1.3
2016-Dec-03 16:33N 40°56' E 024°29'0 0.1
2016-Dec-03 15:27N 40°56' E 024°29'0 0.1
2016-Dec-03 14:33N 40°56' E 024°29'0 0.0
2016-Dec-03 13:33N 40°56' E 024°29'0 0.0
2016-Dec-03 12:33N 40°56' E 024°29'0 0.0
2016-Dec-03 11:33N 40°56' E 024°29'0 0.0
2016-Dec-03 10:33N 40°56' E 024°29'0 0.0
2016-Dec-03 09:33N 40°56' E 024°29'0 0.0
2016-Dec-03 08:33N 40°56' E 024°29'0 0.0
2016-Dec-03 07:33N 40°56' E 024°29'0 0.1
2016-Dec-03 06:33N 40°56' E 024°29'0 0.1
2016-Dec-03 05:30N 40°56' E 024°29'0 0.1
2016-Dec-03 04:33N 40°56' E 024°29'0 0.0
2016-Dec-03 03:33N 40°56' E 024°29'0 0.0
2016-Dec-03 02:33N 40°56' E 024°29'0 0.0
2016-Dec-03 01:33N 40°56' E 024°29'0 0.0
2016-Dec-03 00:33N 40°56' E 024°29'0 0.0
2016-Dec-02 23:33N 40°56' E 024°29'0 0.0
2016-Dec-02 22:33N 40°56' E 024°29'0 0.0
2016-Dec-02 21:33N 40°56' E 024°29'0 0.0
2016-Dec-02 20:33N 40°56' E 024°29'0 0.0
2016-Dec-02 19:33N 40°56' E 024°29'0 0.0
2016-Dec-02 18:33N 40°56' E 024°29'0 0.0
2016-Dec-02 17:33N 40°56' E 024°29'0 0.0
2016-Dec-02 16:33N 40°56' E 024°29'0 0.0
2016-Dec-02 15:33N 40°56' E 024°29'0 0.0
2016-Dec-02 14:33N 40°56' E 024°29'0 0.0
2016-Dec-02 13:30N 40°56' E 024°29'0 0.0
2016-Dec-02 12:33N 40°56' E 024°29'0 0.0
2016-Dec-02 11:33N 40°56' E 024°29'0 0.0
2016-Dec-02 10:33N 40°56' E 024°29'0 0.0
2016-Dec-02 09:33N 40°56' E 024°29'0 0.0
2016-Dec-02 08:33N 40°56' E 024°29'0 0.0
2016-Dec-02 07:33N 40°56' E 024°29'0 0.0
2016-Dec-02 06:33N 40°56' E 024°29'0 0.0
2016-Dec-02 05:33N 40°56' E 024°29'0 0.0
2016-Dec-02 04:33N 40°56' E 024°29'0 0.0
2016-Dec-02 03:33N 40°56' E 024°29'0 0.0
2016-Dec-02 02:33N 40°56' E 024°29'0 0.0
2016-Dec-02 01:33N 40°56' E 024°29'7 6.6
2016-Dec-02 00:32N 40°49' E 024°27'9 8.6
2016-Dec-01 23:32N 40°41' E 024°25'8 8.5
2016-Dec-01 22:33N 40°33' E 024°30'9 8.3
2016-Dec-01 21:29N 40°25' E 024°36'11 8.3
2016-Dec-01 20:08N 40°16' E 024°43'  
Track history (hours):
 
Tides and Currents Weather Stations Pressure Air Temp Water Temp Dewpoint Dewpoint Depression Visibility Wind Speed Wind Dir Waves Ship Positions

Oney Z

Last reported at 2016-Dec-04 13:05 UTC. Time now 2016-Dec-10 03:06 UTC.
Position N 40°42' E 024°56'.

Length 79 m; draft 4 m.

Type: Cargo ship. MMSI: 376099000.

Date/timePositionNaut miles runAvg speedWind from/ knotsBaromVisibWave heightAir tempDewpointWater temp
2016-Dec-04 13:05N 40°42' E 024°56'4 6.6
2016-Dec-04 12:33N 40°44' E 024°53'7 6.8
2016-Dec-04 11:33N 40°48' E 024°45'7 7.1
2016-Dec-04 10:33N 40°50' E 024°36'8 7.7
2016-Dec-04 09:33N 40°56' E 024°29'1 1.1
2016-Dec-04 08:32N 40°57' E 024°29'0 0.0
2016-Dec-04 07:32N 40°57' E 024°29'0 0.0
2016-Dec-04 06:32N 40°57' E 024°29'0 0.0
2016-Dec-04 05:32N 40°57' E 024°29'0 0.0
2016-Dec-04 04:32N 40°57' E 024°29'0 0.0
2016-Dec-04 03:32N 40°57' E 024°29'0 0.0
2016-Dec-04 02:29N 40°57' E 024°29'0 0.0
2016-Dec-04 01:32N 40°57' E 024°29'0 0.0
2016-Dec-04 00:29N 40°57' E 024°29'0 0.0
2016-Dec-03 23:32N 40°57' E 024°29'0 0.0
2016-Dec-03 22:32N 40°57' E 024°29'0 0.0
2016-Dec-03 21:32N 40°57' E 024°29'0 0.0
2016-Dec-03 20:32N 40°57' E 024°29'0 0.0
2016-Dec-03 19:32N 40°57' E 024°29'0 0.0
2016-Dec-03 18:32N 40°57' E 024°29'0 0.0
2016-Dec-03 17:32N 40°57' E 024°29'1 1.3
2016-Dec-03 16:33N 40°56' E 024°29'0 0.1
2016-Dec-03 15:27N 40°56' E 024°29'0 0.1
2016-Dec-03 14:33N 40°56' E 024°29'0 0.0
2016-Dec-03 13:33N 40°56' E 024°29'0 0.0
2016-Dec-03 12:33N 40°56' E 024°29'0 0.0
2016-Dec-03 11:33N 40°56' E 024°29'0 0.0
2016-Dec-03 10:33N 40°56' E 024°29'0 0.0
2016-Dec-03 09:33N 40°56' E 024°29'0 0.0
2016-Dec-03 08:33N 40°56' E 024°29'0 0.0
2016-Dec-03 07:33N 40°56' E 024°29'0 0.1
2016-Dec-03 06:33N 40°56' E 024°29'0 0.1
2016-Dec-03 05:30N 40°56' E 024°29'0 0.1
2016-Dec-03 04:33N 40°56' E 024°29'0 0.0
2016-Dec-03 03:33N 40°56' E 024°29'0 0.0
2016-Dec-03 02:33N 40°56' E 024°29'0 0.0
2016-Dec-03 01:33N 40°56' E 024°29'0 0.0
2016-Dec-03 00:33N 40°56' E 024°29'0 0.0
2016-Dec-02 23:33N 40°56' E 024°29'0 0.0
2016-Dec-02 22:33N 40°56' E 024°29'0 0.0
2016-Dec-02 21:33N 40°56' E 024°29'0 0.0
2016-Dec-02 20:33N 40°56' E 024°29'0 0.0
2016-Dec-02 19:33N 40°56' E 024°29'0 0.0
2016-Dec-02 18:33N 40°56' E 024°29'0 0.0
2016-Dec-02 17:33N 40°56' E 024°29'0 0.0
2016-Dec-02 16:33N 40°56' E 024°29'0 0.0
2016-Dec-02 15:33N 40°56' E 024°29'0 0.0
2016-Dec-02 14:33N 40°56' E 024°29'0 0.0
2016-Dec-02 13:30N 40°56' E 024°29'0 0.0
2016-Dec-02 12:33N 40°56' E 024°29'0 0.0
2016-Dec-02 11:33N 40°56' E 024°29'0 0.0
2016-Dec-02 10:33N 40°56' E 024°29'0 0.0
2016-Dec-02 09:33N 40°56' E 024°29'0 0.0
2016-Dec-02 08:33N 40°56' E 024°29'0 0.0
2016-Dec-02 07:33N 40°56' E 024°29'0 0.0
2016-Dec-02 06:33N 40°56' E 024°29'0 0.0
2016-Dec-02 05:33N 40°56' E 024°29'0 0.0
2016-Dec-02 04:33N 40°56' E 024°29'0 0.0
2016-Dec-02 03:33N 40°56' E 024°29'0 0.0
2016-Dec-02 02:33N 40°56' E 024°29'0 0.0
2016-Dec-02 01:33N 40°56' E 024°29'7 6.6
2016-Dec-02 00:32N 40°49' E 024°27'9 8.6
2016-Dec-01 23:32N 40°41' E 024°25'8 8.5
2016-Dec-01 22:33N 40°33' E 024°30'9 8.3
2016-Dec-01 21:29N 40°25' E 024°36'11 8.3
2016-Dec-01 20:08N 40°16' E 024°43'  

Dump ship's entire track history